sensor_id;sensor_type;location;lat;lon;timestamp;temperature;humidity
11922;DHT22;6021;51.182;3.160;2022-10-31T00:01:33;12.70;99.90
11922;DHT22;6021;51.182;3.160;2022-10-31T00:04:02;12.80;99.90
11922;DHT22;6021;51.182;3.160;2022-10-31T00:06:31;12.90;99.90
11922;DHT22;6021;51.182;3.160;2022-10-31T00:09:02;12.70;99.90
11922;DHT22;6021;51.182;3.160;2022-10-31T00:11:31;12.60;99.90
11922;DHT22;6021;51.182;3.160;2022-10-31T00:13:59;13.00;99.90
11922;DHT22;6021;51.182;3.160;2022-10-31T00:16:28;13.10;99.90
11922;DHT22;6021;51.182;3.160;2022-10-31T00:18:59;13.10;99.90
11922;DHT22;6021;51.182;3.160;2022-10-31T00:21:29;13.20;99.90
11922;DHT22;6021;51.182;3.160;2022-10-31T00:23:59;13.30;99.90
11922;DHT22;6021;51.182;3.160;2022-10-31T00:26:28;13.10;99.90
11922;DHT22;6021;51.182;3.160;2022-10-31T00:28:58;13.20;99.90
11922;DHT22;6021;51.182;3.160;2022-10-31T00:31:26;13.00;99.90
11922;DHT22;6021;51.182;3.160;2022-10-31T00:33:55;13.00;99.90
11922;DHT22;6021;51.182;3.160;2022-10-31T00:36:23;13.00;99.90
11922;DHT22;6021;51.182;3.160;2022-10-31T00:38:52;12.70;99.90
11922;DHT22;6021;51.182;3.160;2022-10-31T00:41:20;13.00;99.90
11922;DHT22;6021;51.182;3.160;2022-10-31T00:43:48;12.50;99.90
11922;DHT22;6021;51.182;3.160;2022-10-31T00:46:17;12.60;99.90
11922;DHT22;6021;51.182;3.160;2022-10-31T00:48:45;12.50;99.90
11922;DHT22;6021;51.182;3.160;2022-10-31T00:51:13;12.60;99.90
11922;DHT22;6021;51.182;3.160;2022-10-31T00:53:42;12.70;99.90
11922;DHT22;6021;51.182;3.160;2022-10-31T00:56:10;12.90;99.90
11922;DHT22;6021;51.182;3.160;2022-10-31T00:58:39;12.70;99.90
11922;DHT22;6021;51.182;3.160;2022-10-31T01:01:07;12.60;99.90
11922;DHT22;6021;51.182;3.160;2022-10-31T01:03:35;13.00;99.90
11922;DHT22;6021;51.182;3.160;2022-10-31T01:06:10;12.90;99.90
11922;DHT22;6021;51.182;3.160;2022-10-31T01:08:39;12.90;99.90
11922;DHT22;6021;51.182;3.160;2022-10-31T01:11:11;13.20;99.90
11922;DHT22;6021;51.182;3.160;2022-10-31T01:13:39;13.40;99.90
11922;DHT22;6021;51.182;3.160;2022-10-31T01:16:11;13.30;99.90
11922;DHT22;6021;51.182;3.160;2022-10-31T01:18:40;13.40;99.90
11922;DHT22;6021;51.182;3.160;2022-10-31T01:21:20;13.30;99.90
11922;DHT22;6021;51.182;3.160;2022-10-31T01:23:49;13.10;99.90
11922;DHT22;6021;51.182;3.160;2022-10-31T01:26:20;13.00;99.90
11922;DHT22;6021;51.182;3.160;2022-10-31T01:29:02;12.90;99.90
11922;DHT22;6021;51.182;3.160;2022-10-31T01:31:32;12.60;99.90
11922;DHT22;6021;51.182;3.160;2022-10-31T01:34:01;12.40;99.90
11922;DHT22;6021;51.182;3.160;2022-10-31T01:36:35;12.40;99.90
11922;DHT22;6021;51.182;3.160;2022-10-31T01:39:10;12.70;99.90
11922;DHT22;6021;51.182;3.160;2022-10-31T01:41:38;12.40;99.90
11922;DHT22;6021;51.182;3.160;2022-10-31T01:46:52;12.50;99.90
11922;DHT22;6021;51.182;3.160;2022-10-31T01:52:24;12.10;99.90
11922;DHT22;6021;51.182;3.160;2022-10-31T01:54:59;12.20;99.90
11922;DHT22;6021;51.182;3.160;2022-10-31T01:57:24;12.20;99.90
11922;DHT22;6021;51.182;3.160;2022-10-31T01:59:55;12.20;99.90
11922;DHT22;6021;51.182;3.160;2022-10-31T02:02:25;12.30;99.90
11922;DHT22;6021;51.182;3.160;2022-10-31T02:04:56;12.40;99.90
11922;DHT22;6021;51.182;3.160;2022-10-31T02:07:37;12.20;99.90
11922;DHT22;6021;51.182;3.160;2022-10-31T02:10:05;12.10;99.90
11922;DHT22;6021;51.182;3.160;2022-10-31T02:12:34;12.00;99.90
11922;DHT22;6021;51.182;3.160;2022-10-31T02:15:04;12.00;99.90
11922;DHT22;6021;51.182;3.160;2022-10-31T02:17:33;12.10;99.90
11922;DHT22;6021;51.182;3.160;2022-10-31T02:31:53;12.10;99.90
11922;DHT22;6021;51.182;3.160;2022-10-31T02:34:32;12.40;99.90
11922;DHT22;6021;51.182;3.160;2022-10-31T02:39:50;12.40;99.90
11922;DHT22;6021;51.182;3.160;2022-10-31T02:42:22;12.40;99.90
11922;DHT22;6021;51.182;3.160;2022-10-31T02:45:07;12.50;99.90
11922;DHT22;6021;51.182;3.160;2022-10-31T02:47:32;12.60;99.90
11922;DHT22;6021;51.182;3.160;2022-10-31T02:50:06;12.50;99.90
11922;DHT22;6021;51.182;3.160;2022-10-31T02:52:35;12.40;99.90
11922;DHT22;6021;51.182;3.160;2022-10-31T02:58:10;12.50;99.90
11922;DHT22;6021;51.182;3.160;2022-10-31T03:01:28;12.60;99.90
11922;DHT22;6021;51.182;3.160;2022-10-31T03:03:15;12.40;99.90
11922;DHT22;6021;51.182;3.160;2022-10-31T03:05:55;12.20;99.90
11922;DHT22;6021;51.182;3.160;2022-10-31T03:11:08;12.70;99.90
11922;DHT22;6021;51.182;3.160;2022-10-31T03:16:50;12.80;99.90
11922;DHT22;6021;51.182;3.160;2022-10-31T03:19:23;12.30;99.90
11922;DHT22;6021;51.182;3.160;2022-10-31T03:24:38;12.30;99.90
11922;DHT22;6021;51.182;3.160;2022-10-31T03:27:09;12.20;99.90
11922;DHT22;6021;51.182;3.160;2022-10-31T03:29:39;11.90;99.90
11922;DHT22;6021;51.182;3.160;2022-10-31T03:32:14;12.10;99.90
11922;DHT22;6021;51.182;3.160;2022-10-31T03:34:44;12.40;99.90
11922;DHT22;6021;51.182;3.160;2022-10-31T03:37:15;12.10;99.90
11922;DHT22;6021;51.182;3.160;2022-10-31T03:39:46;11.90;99.90
11922;DHT22;6021;51.182;3.160;2022-10-31T03:42:24;11.90;99.90
11922;DHT22;6021;51.182;3.160;2022-10-31T03:44:58;11.80;99.90
11922;DHT22;6021;51.182;3.160;2022-10-31T03:47:27;12.00;99.90
11922;DHT22;6021;51.182;3.160;2022-10-31T03:49:55;12.00;99.90
11922;DHT22;6021;51.182;3.160;2022-10-31T03:57:57;11.70;99.90
11922;DHT22;6021;51.182;3.160;2022-10-31T04:00:27;11.60;99.90
11922;DHT22;6021;51.182;3.160;2022-10-31T04:03:07;11.70;99.90
11922;DHT22;6021;51.182;3.160;2022-10-31T04:05:37;11.70;99.90
11922;DHT22;6021;51.182;3.160;2022-10-31T04:08:08;11.50;99.90
11922;DHT22;6021;51.182;3.160;2022-10-31T04:10:39;11.60;99.90
11922;DHT22;6021;51.182;3.160;2022-10-31T04:13:11;11.80;99.90
11922;DHT22;6021;51.182;3.160;2022-10-31T04:15:41;11.80;99.90
11922;DHT22;6021;51.182;3.160;2022-10-31T04:18:10;11.70;99.90
11922;DHT22;6021;51.182;3.160;2022-10-31T04:20:41;11.60;99.90
11922;DHT22;6021;51.182;3.160;2022-10-31T04:23:21;11.60;99.90
11922;DHT22;6021;51.182;3.160;2022-10-31T04:25:49;11.60;99.90
11922;DHT22;6021;51.182;3.160;2022-10-31T04:28:18;11.40;99.90
11922;DHT22;6021;51.182;3.160;2022-10-31T04:30:46;11.40;99.90
11922;DHT22;6021;51.182;3.160;2022-10-31T04:33:15;11.50;99.90
11922;DHT22;6021;51.182;3.160;2022-10-31T04:35:43;11.50;99.90
11922;DHT22;6021;51.182;3.160;2022-10-31T04:38:11;11.70;99.90
11922;DHT22;6021;51.182;3.160;2022-10-31T04:40:40;11.60;99.90
11922;DHT22;6021;51.182;3.160;2022-10-31T04:43:08;11.30;99.90
11922;DHT22;6021;51.182;3.160;2022-10-31T04:45:37;11.50;99.90
11922;DHT22;6021;51.182;3.160;2022-10-31T04:48:05;11.50;99.90
11922;DHT22;6021;51.182;3.160;2022-10-31T04:50:34;11.50;99.90
11922;DHT22;6021;51.182;3.160;2022-10-31T04:53:02;11.40;99.90
11922;DHT22;6021;51.182;3.160;2022-10-31T04:55:31;11.60;99.90
11922;DHT22;6021;51.182;3.160;2022-10-31T04:57:59;11.30;99.90
11922;DHT22;6021;51.182;3.160;2022-10-31T05:00:28;11.30;99.90
11922;DHT22;6021;51.182;3.160;2022-10-31T05:02:57;11.20;99.90
11922;DHT22;6021;51.182;3.160;2022-10-31T05:05:31;11.20;99.90
11922;DHT22;6021;51.182;3.160;2022-10-31T05:07:59;11.20;99.90
11922;DHT22;6021;51.182;3.160;2022-10-31T05:10:29;11.30;99.90
11922;DHT22;6021;51.182;3.160;2022-10-31T05:13:00;11.30;99.90
11922;DHT22;6021;51.182;3.160;2022-10-31T05:15:29;11.30;99.90
11922;DHT22;6021;51.182;3.160;2022-10-31T05:17:58;11.50;99.90
11922;DHT22;6021;51.182;3.160;2022-10-31T05:20:29;11.80;99.90
11922;DHT22;6021;51.182;3.160;2022-10-31T05:22:58;11.80;99.90
11922;DHT22;6021;51.182;3.160;2022-10-31T05:25:28;11.70;99.90
11922;DHT22;6021;51.182;3.160;2022-10-31T05:27:57;11.80;99.90
11922;DHT22;6021;51.182;3.160;2022-10-31T05:30:27;12.00;99.90
11922;DHT22;6021;51.182;3.160;2022-10-31T05:32:56;11.70;99.90
11922;DHT22;6021;51.182;3.160;2022-10-31T05:35:27;11.50;99.90
11922;DHT22;6021;51.182;3.160;2022-10-31T05:37:57;11.30;99.90
11922;DHT22;6021;51.182;3.160;2022-10-31T05:40:26;11.50;99.90
11922;DHT22;6021;51.182;3.160;2022-10-31T05:42:56;11.60;99.90
11922;DHT22;6021;51.182;3.160;2022-10-31T05:45:27;11.60;99.90
11922;DHT22;6021;51.182;3.160;2022-10-31T05:47:57;11.60;99.90
11922;DHT22;6021;51.182;3.160;2022-10-31T05:50:28;11.50;99.90
11922;DHT22;6021;51.182;3.160;2022-10-31T05:53:05;11.50;99.90
11922;DHT22;6021;51.182;3.160;2022-10-31T05:55:31;11.70;99.90
11922;DHT22;6021;51.182;3.160;2022-10-31T05:57:59;12.00;99.90
11922;DHT22;6021;51.182;3.160;2022-10-31T06:00:28;12.00;99.90
11922;DHT22;6021;51.182;3.160;2022-10-31T06:03:01;12.00;99.90
11922;DHT22;6021;51.182;3.160;2022-10-31T06:05:30;12.00;99.90
11922;DHT22;6021;51.182;3.160;2022-10-31T06:07:58;12.20;99.90
11922;DHT22;6021;51.182;3.160;2022-10-31T06:10:27;12.20;99.90
11922;DHT22;6021;51.182;3.160;2022-10-31T06:12:56;12.10;99.90
11922;DHT22;6021;51.182;3.160;2022-10-31T06:15:24;12.00;99.90
11922;DHT22;6021;51.182;3.160;2022-10-31T06:18:03;11.70;99.90
11922;DHT22;6021;51.182;3.160;2022-10-31T06:20:33;11.60;99.90
11922;DHT22;6021;51.182;3.160;2022-10-31T06:23:02;11.20;99.90
11922;DHT22;6021;51.182;3.160;2022-10-31T06:25:30;11.20;99.90
11922;DHT22;6021;51.182;3.160;2022-10-31T06:28:00;11.20;99.90
11922;DHT22;6021;51.182;3.160;2022-10-31T06:30:28;11.20;99.90
11922;DHT22;6021;51.182;3.160;2022-10-31T06:33:01;11.40;99.90
11922;DHT22;6021;51.182;3.160;2022-10-31T06:35:31;11.60;99.90
11922;DHT22;6021;51.182;3.160;2022-10-31T06:37:59;11.40;99.90
11922;DHT22;6021;51.182;3.160;2022-10-31T06:40:27;11.40;99.90
11922;DHT22;6021;51.182;3.160;2022-10-31T06:42:59;11.60;99.90
11922;DHT22;6021;51.182;3.160;2022-10-31T06:45:28;11.30;99.90
11922;DHT22;6021;51.182;3.160;2022-10-31T06:47:57;11.20;99.90
11922;DHT22;6021;51.182;3.160;2022-10-31T06:50:26;11.40;99.90
11922;DHT22;6021;51.182;3.160;2022-10-31T06:52:58;11.20;99.90
11922;DHT22;6021;51.182;3.160;2022-10-31T06:55:27;11.00;99.90
11922;DHT22;6021;51.182;3.160;2022-10-31T06:57:57;10.90;99.90
11922;DHT22;6021;51.182;3.160;2022-10-31T07:00:27;10.80;99.90
11922;DHT22;6021;51.182;3.160;2022-10-31T07:03:01;10.70;99.90
11922;DHT22;6021;51.182;3.160;2022-10-31T07:05:30;10.60;99.90
11922;DHT22;6021;51.182;3.160;2022-10-31T07:08:01;10.60;99.90
11922;DHT22;6021;51.182;3.160;2022-10-31T07:10:31;10.60;99.90
11922;DHT22;6021;51.182;3.160;2022-10-31T07:13:03;10.60;99.90
11922;DHT22;6021;51.182;3.160;2022-10-31T07:15:34;10.70;99.90
11922;DHT22;6021;51.182;3.160;2022-10-31T07:18:03;10.70;99.90
11922;DHT22;6021;51.182;3.160;2022-10-31T07:20:32;10.80;99.90
11922;DHT22;6021;51.182;3.160;2022-10-31T07:23:01;10.90;99.90
11922;DHT22;6021;51.182;3.160;2022-10-31T07:25:29;10.90;99.90
11922;DHT22;6021;51.182;3.160;2022-10-31T07:27:58;10.80;99.90
11922;DHT22;6021;51.182;3.160;2022-10-31T07:30:26;10.90;99.90
11922;DHT22;6021;51.182;3.160;2022-10-31T07:32:54;10.80;99.90
11922;DHT22;6021;51.182;3.160;2022-10-31T07:35:24;10.80;99.90
11922;DHT22;6021;51.182;3.160;2022-10-31T07:37:53;10.70;99.90
11922;DHT22;6021;51.182;3.160;2022-10-31T07:40:22;10.90;99.90
11922;DHT22;6021;51.182;3.160;2022-10-31T07:42:52;10.80;99.90
11922;DHT22;6021;51.182;3.160;2022-10-31T07:45:21;10.80;99.90
11922;DHT22;6021;51.182;3.160;2022-10-31T07:47:52;11.00;99.90
11922;DHT22;6021;51.182;3.160;2022-10-31T07:50:26;10.70;99.90
11922;DHT22;6021;51.182;3.160;2022-10-31T07:52:59;10.70;99.90
11922;DHT22;6021;51.182;3.160;2022-10-31T07:55:28;10.70;99.90
11922;DHT22;6021;51.182;3.160;2022-10-31T07:58:10;11.00;99.90
11922;DHT22;6021;51.182;3.160;2022-10-31T08:00:35;10.90;99.90
11922;DHT22;6021;51.182;3.160;2022-10-31T08:03:09;10.80;99.90
11922;DHT22;6021;51.182;3.160;2022-10-31T08:05:37;10.70;99.90
11922;DHT22;6021;51.182;3.160;2022-10-31T08:08:08;10.80;99.90
11922;DHT22;6021;51.182;3.160;2022-10-31T08:10:37;10.80;99.90
11922;DHT22;6021;51.182;3.160;2022-10-31T08:13:10;10.80;99.90
11922;DHT22;6021;51.182;3.160;2022-10-31T08:15:38;11.00;99.90
11922;DHT22;6021;51.182;3.160;2022-10-31T08:18:13;10.90;99.90
11922;DHT22;6021;51.182;3.160;2022-10-31T08:20:43;11.30;99.90
11922;DHT22;6021;51.182;3.160;2022-10-31T08:23:12;11.00;99.90
11922;DHT22;6021;51.182;3.160;2022-10-31T08:25:41;11.10;99.90
11922;DHT22;6021;51.182;3.160;2022-10-31T08:28:11;11.10;99.90
11922;DHT22;6021;51.182;3.160;2022-10-31T08:30:40;11.20;99.90
11922;DHT22;6021;51.182;3.160;2022-10-31T08:33:14;11.20;99.90
11922;DHT22;6021;51.182;3.160;2022-10-31T08:35:44;11.30;99.90
11922;DHT22;6021;51.182;3.160;2022-10-31T08:38:13;11.30;99.90
11922;DHT22;6021;51.182;3.160;2022-10-31T08:40:41;11.40;99.90
11922;DHT22;6021;51.182;3.160;2022-10-31T08:43:14;11.70;99.90
11922;DHT22;6021;51.182;3.160;2022-10-31T08:45:44;11.40;99.90
11922;DHT22;6021;51.182;3.160;2022-10-31T08:48:15;11.60;99.90
11922;DHT22;6021;51.182;3.160;2022-10-31T08:50:44;11.60;99.90
11922;DHT22;6021;51.182;3.160;2022-10-31T08:53:17;11.70;99.90
11922;DHT22;6021;51.182;3.160;2022-10-31T08:55:47;11.90;99.90
11922;DHT22;6021;51.182;3.160;2022-10-31T08:58:19;11.90;99.90
11922;DHT22;6021;51.182;3.160;2022-10-31T09:00:50;11.90;99.90
11922;DHT22;6021;51.182;3.160;2022-10-31T09:03:21;12.00;99.90
11922;DHT22;6021;51.182;3.160;2022-10-31T09:05:50;12.20;99.90
11922;DHT22;6021;51.182;3.160;2022-10-31T09:08:18;12.20;99.90
11922;DHT22;6021;51.182;3.160;2022-10-31T09:10:46;12.30;99.90
11922;DHT22;6021;51.182;3.160;2022-10-31T09:13:17;12.20;99.90
11922;DHT22;6021;51.182;3.160;2022-10-31T09:15:47;12.20;99.90
11922;DHT22;6021;51.182;3.160;2022-10-31T09:18:18;12.20;99.90
11922;DHT22;6021;51.182;3.160;2022-10-31T09:20:48;12.20;99.90
11922;DHT22;6021;51.182;3.160;2022-10-31T09:23:21;12.20;99.90
11922;DHT22;6021;51.182;3.160;2022-10-31T09:25:51;12.30;99.90
11922;DHT22;6021;51.182;3.160;2022-10-31T09:28:22;12.50;99.90
11922;DHT22;6021;51.182;3.160;2022-10-31T09:30:52;12.60;99.90
11922;DHT22;6021;51.182;3.160;2022-10-31T09:33:21;12.60;99.90
11922;DHT22;6021;51.182;3.160;2022-10-31T09:35:49;12.60;99.90
11922;DHT22;6021;51.182;3.160;2022-10-31T09:38:19;12.60;99.90
11922;DHT22;6021;51.182;3.160;2022-10-31T09:43:57;12.80;99.90
11922;DHT22;6021;51.182;3.160;2022-10-31T09:49:57;12.80;99.90
11922;DHT22;6021;51.182;3.160;2022-10-31T09:52:32;13.00;99.90
11922;DHT22;6021;51.182;3.160;2022-10-31T09:55:15;13.00;99.90
11922;DHT22;6021;51.182;3.160;2022-10-31T09:57:44;13.00;99.90
11922;DHT22;6021;51.182;3.160;2022-10-31T10:00:19;13.00;99.90
11922;DHT22;6021;51.182;3.160;2022-10-31T10:08:19;13.30;99.90
11922;DHT22;6021;51.182;3.160;2022-10-31T10:18:38;13.80;99.90
11922;DHT22;6021;51.182;3.160;2022-10-31T10:21:10;13.70;99.90
11922;DHT22;6021;51.182;3.160;2022-10-31T10:26:29;13.70;99.90
11922;DHT22;6021;51.182;3.160;2022-10-31T10:29:07;13.70;99.90
11922;DHT22;6021;51.182;3.160;2022-10-31T10:31:37;13.70;99.90
11922;DHT22;6021;51.182;3.160;2022-10-31T10:34:31;13.80;99.90
11922;DHT22;6021;51.182;3.160;2022-10-31T10:37:18;13.80;99.90
11922;DHT22;6021;51.182;3.160;2022-10-31T10:39:45;13.90;99.90
11922;DHT22;6021;51.182;3.160;2022-10-31T10:42:15;13.90;99.90
11922;DHT22;6021;51.182;3.160;2022-10-31T10:45:36;14.00;99.90
11922;DHT22;6021;51.182;3.160;2022-10-31T10:48:00;14.00;99.90
11922;DHT22;6021;51.182;3.160;2022-10-31T10:50:33;14.00;99.90
11922;DHT22;6021;51.182;3.160;2022-10-31T10:55:53;14.10;99.90
11922;DHT22;6021;51.182;3.160;2022-10-31T10:58:21;14.10;99.90
11922;DHT22;6021;51.182;3.160;2022-10-31T11:00:50;14.10;99.90
11922;DHT22;6021;51.182;3.160;2022-10-31T11:03:20;14.20;99.90
11922;DHT22;6021;51.182;3.160;2022-10-31T11:05:58;14.30;99.90
11922;DHT22;6021;51.182;3.160;2022-10-31T11:08:32;14.30;99.90
11922;DHT22;6021;51.182;3.160;2022-10-31T11:13:33;14.50;99.90
11922;DHT22;6021;51.182;3.160;2022-10-31T11:16:11;14.60;99.90
11922;DHT22;6021;51.182;3.160;2022-10-31T11:18:47;14.70;99.90
11922;DHT22;6021;51.182;3.160;2022-10-31T11:21:28;14.90;99.90
11922;DHT22;6021;51.182;3.160;2022-10-31T11:26:44;15.10;99.90
11922;DHT22;6021;51.182;3.160;2022-10-31T11:29:16;15.20;99.90
11922;DHT22;6021;51.182;3.160;2022-10-31T11:31:45;15.20;99.90
11922;DHT22;6021;51.182;3.160;2022-10-31T11:34:18;15.30;99.90
11922;DHT22;6021;51.182;3.160;2022-10-31T11:36:46;15.30;99.90
11922;DHT22;6021;51.182;3.160;2022-10-31T11:39:20;15.20;99.90
11922;DHT22;6021;51.182;3.160;2022-10-31T11:41:49;15.20;99.90
11922;DHT22;6021;51.182;3.160;2022-10-31T11:44:21;15.20;99.90
11922;DHT22;6021;51.182;3.160;2022-10-31T11:46:55;15.20;99.90
11922;DHT22;6021;51.182;3.160;2022-10-31T11:49:39;15.20;99.90
11922;DHT22;6021;51.182;3.160;2022-10-31T11:52:22;15.20;99.90
11922;DHT22;6021;51.182;3.160;2022-10-31T11:55:47;15.20;99.90
11922;DHT22;6021;51.182;3.160;2022-10-31T11:57:33;15.40;99.90
11922;DHT22;6021;51.182;3.160;2022-10-31T12:07:48;15.60;99.90
11922;DHT22;6021;51.182;3.160;2022-10-31T12:10:19;15.60;99.90
11922;DHT22;6021;51.182;3.160;2022-10-31T12:15:31;15.80;99.90
11922;DHT22;6021;51.182;3.160;2022-10-31T12:20:47;15.70;99.90
11922;DHT22;6021;51.182;3.160;2022-10-31T12:38:03;15.70;99.90
11922;DHT22;6021;51.182;3.160;2022-10-31T12:40:17;15.70;99.90
11922;DHT22;6021;51.182;3.160;2022-10-31T12:45:41;16.00;99.90
11922;DHT22;6021;51.182;3.160;2022-10-31T12:54:19;15.80;99.90
11922;DHT22;6021;51.182;3.160;2022-10-31T13:26:07;16.00;99.90
11922;DHT22;6021;51.182;3.160;2022-10-31T13:43:02;15.70;99.90
11922;DHT22;6021;51.182;3.160;2022-10-31T13:50:42;15.80;99.90
11922;DHT22;6021;51.182;3.160;2022-10-31T13:53:22;15.80;99.90
11922;DHT22;6021;51.182;3.160;2022-10-31T13:58:38;15.70;99.90
11922;DHT22;6021;51.182;3.160;2022-10-31T14:01:18;15.70;99.90
11922;DHT22;6021;51.182;3.160;2022-10-31T14:04:02;15.70;99.90
11922;DHT22;6021;51.182;3.160;2022-10-31T14:14:26;15.70;99.90
11922;DHT22;6021;51.182;3.160;2022-10-31T14:16:56;15.90;99.90
11922;DHT22;6021;51.182;3.160;2022-10-31T14:19:25;15.70;99.90
11922;DHT22;6021;51.182;3.160;2022-10-31T14:27:35;15.70;99.90
11922;DHT22;6021;51.182;3.160;2022-10-31T14:29:34;15.70;99.90
11922;DHT22;6021;51.182;3.160;2022-10-31T14:50:48;15.60;99.90
11922;DHT22;6021;51.182;3.160;2022-10-31T14:55:53;15.60;99.90
11922;DHT22;6021;51.182;3.160;2022-10-31T15:03:42;15.50;99.90
11922;DHT22;6021;51.182;3.160;2022-10-31T15:06:13;15.60;99.90
11922;DHT22;6021;51.182;3.160;2022-10-31T15:11:16;15.60;99.90
11922;DHT22;6021;51.182;3.160;2022-10-31T15:16:19;15.60;99.90
11922;DHT22;6021;51.182;3.160;2022-10-31T15:19:12;15.50;99.90
11922;DHT22;6021;51.182;3.160;2022-10-31T15:21:26;15.50;99.90
11922;DHT22;6021;51.182;3.160;2022-10-31T15:26:37;15.50;99.90
11922;DHT22;6021;51.182;3.160;2022-10-31T15:34:46;15.50;99.90
11922;DHT22;6021;51.182;3.160;2022-10-31T15:37:16;15.40;99.90
11922;DHT22;6021;51.182;3.160;2022-10-31T15:47:59;15.40;99.90
11922;DHT22;6021;51.182;3.160;2022-10-31T15:50:30;15.30;99.90
11922;DHT22;6021;51.182;3.160;2022-10-31T16:03:25;15.20;99.90
11922;DHT22;6021;51.182;3.160;2022-10-31T16:05:56;15.10;99.90
11922;DHT22;6021;51.182;3.160;2022-10-31T16:11:32;15.10;99.90
11922;DHT22;6021;51.182;3.160;2022-10-31T16:14:17;15.00;99.90
11922;DHT22;6021;51.182;3.160;2022-10-31T16:16:51;15.00;99.90
11922;DHT22;6021;51.182;3.160;2022-10-31T16:19:27;15.00;99.90
11922;DHT22;6021;51.182;3.160;2022-10-31T16:22:19;15.00;99.90
11922;DHT22;6021;51.182;3.160;2022-10-31T16:24:31;14.90;99.90
11922;DHT22;6021;51.182;3.160;2022-10-31T16:27:15;14.90;99.90
11922;DHT22;6021;51.182;3.160;2022-10-31T16:29:39;14.90;99.90
11922;DHT22;6021;51.182;3.160;2022-10-31T16:34:59;14.90;99.90
11922;DHT22;6021;51.182;3.160;2022-10-31T16:37:28;14.90;99.90
11922;DHT22;6021;51.182;3.160;2022-10-31T16:39:56;14.80;99.90
11922;DHT22;6021;51.182;3.160;2022-10-31T16:42:37;14.70;99.90
11922;DHT22;6021;51.182;3.160;2022-10-31T16:44:54;14.70;99.90
11922;DHT22;6021;51.182;3.160;2022-10-31T16:47:23;14.60;99.90
11922;DHT22;6021;51.182;3.160;2022-10-31T16:49:51;14.60;99.90
11922;DHT22;6021;51.182;3.160;2022-10-31T16:52:20;14.60;99.90
11922;DHT22;6021;51.182;3.160;2022-10-31T16:54:48;14.50;99.90
11922;DHT22;6021;51.182;3.160;2022-10-31T16:57:20;14.50;99.90
11922;DHT22;6021;51.182;3.160;2022-10-31T16:59:51;14.70;99.90
11922;DHT22;6021;51.182;3.160;2022-10-31T17:02:21;14.60;99.90
11922;DHT22;6021;51.182;3.160;2022-10-31T17:04:49;14.60;99.90
11922;DHT22;6021;51.182;3.160;2022-10-31T17:07:17;14.60;99.90
11922;DHT22;6021;51.182;3.160;2022-10-31T17:09:46;14.50;99.90
11922;DHT22;6021;51.182;3.160;2022-10-31T17:12:17;14.50;99.90
11922;DHT22;6021;51.182;3.160;2022-10-31T17:14:48;14.50;99.90
11922;DHT22;6021;51.182;3.160;2022-10-31T17:17:17;14.50;99.90
11922;DHT22;6021;51.182;3.160;2022-10-31T17:19:46;14.50;99.90
11922;DHT22;6021;51.182;3.160;2022-10-31T17:22:14;14.50;99.90
11922;DHT22;6021;51.182;3.160;2022-10-31T17:24:43;14.50;99.90
11922;DHT22;6021;51.182;3.160;2022-10-31T17:27:11;14.50;99.90
11922;DHT22;6021;51.182;3.160;2022-10-31T17:29:39;14.50;99.90
11922;DHT22;6021;51.182;3.160;2022-10-31T17:32:08;14.50;99.90
11922;DHT22;6021;51.182;3.160;2022-10-31T17:34:36;14.60;99.90
11922;DHT22;6021;51.182;3.160;2022-10-31T17:37:04;14.60;99.90
11922;DHT22;6021;51.182;3.160;2022-10-31T17:39:33;14.60;99.90
11922;DHT22;6021;51.182;3.160;2022-10-31T17:42:02;14.60;99.90
11922;DHT22;6021;51.182;3.160;2022-10-31T17:44:30;14.60;99.90
11922;DHT22;6021;51.182;3.160;2022-10-31T17:46:58;14.60;99.90
11922;DHT22;6021;51.182;3.160;2022-10-31T17:49:27;14.60;99.90
11922;DHT22;6021;51.182;3.160;2022-10-31T17:51:55;14.60;99.90
11922;DHT22;6021;51.182;3.160;2022-10-31T17:54:23;14.60;99.90
11922;DHT22;6021;51.182;3.160;2022-10-31T17:56:52;14.60;99.90
11922;DHT22;6021;51.182;3.160;2022-10-31T17:59:21;14.60;99.90
11922;DHT22;6021;51.182;3.160;2022-10-31T18:01:50;14.60;99.90
11922;DHT22;6021;51.182;3.160;2022-10-31T18:04:18;14.60;99.90
11922;DHT22;6021;51.182;3.160;2022-10-31T18:06:47;14.60;99.90
11922;DHT22;6021;51.182;3.160;2022-10-31T18:09:17;14.70;99.90
11922;DHT22;6021;51.182;3.160;2022-10-31T18:11:45;14.70;99.90
11922;DHT22;6021;51.182;3.160;2022-10-31T18:14:14;14.80;99.90
11922;DHT22;6021;51.182;3.160;2022-10-31T18:16:42;14.80;99.90
11922;DHT22;6021;51.182;3.160;2022-10-31T18:19:12;14.90;99.90
11922;DHT22;6021;51.182;3.160;2022-10-31T18:21:44;15.00;99.90
11922;DHT22;6021;51.182;3.160;2022-10-31T18:24:12;15.00;99.90
11922;DHT22;6021;51.182;3.160;2022-10-31T18:26:41;15.10;99.90
11922;DHT22;6021;51.182;3.160;2022-10-31T18:29:10;15.20;99.90
11922;DHT22;6021;51.182;3.160;2022-10-31T18:31:38;15.20;99.90
11922;DHT22;6021;51.182;3.160;2022-10-31T18:34:07;15.20;99.90
11922;DHT22;6021;51.182;3.160;2022-10-31T18:36:35;15.00;99.90
11922;DHT22;6021;51.182;3.160;2022-10-31T18:39:04;15.20;99.90
11922;DHT22;6021;51.182;3.160;2022-10-31T18:41:32;15.20;99.90
11922;DHT22;6021;51.182;3.160;2022-10-31T18:44:01;15.50;99.90
11922;DHT22;6021;51.182;3.160;2022-10-31T18:46:30;15.40;99.90
11922;DHT22;6021;51.182;3.160;2022-10-31T18:48:59;15.40;99.90
11922;DHT22;6021;51.182;3.160;2022-10-31T18:51:28;15.40;99.90
11922;DHT22;6021;51.182;3.160;2022-10-31T18:53:58;15.50;99.90
11922;DHT22;6021;51.182;3.160;2022-10-31T18:56:28;15.50;99.90
11922;DHT22;6021;51.182;3.160;2022-10-31T18:59:00;15.60;99.90
11922;DHT22;6021;51.182;3.160;2022-10-31T19:01:29;15.50;99.90
11922;DHT22;6021;51.182;3.160;2022-10-31T19:03:58;15.50;99.90
11922;DHT22;6021;51.182;3.160;2022-10-31T19:06:26;15.60;99.90
11922;DHT22;6021;51.182;3.160;2022-10-31T19:08:58;15.70;99.90
11922;DHT22;6021;51.182;3.160;2022-10-31T19:11:30;15.60;99.90
11922;DHT22;6021;51.182;3.160;2022-10-31T19:13:57;15.60;99.90
11922;DHT22;6021;51.182;3.160;2022-10-31T19:16:26;15.50;99.90
11922;DHT22;6021;51.182;3.160;2022-10-31T19:18:55;15.70;99.90
11922;DHT22;6021;51.182;3.160;2022-10-31T19:21:24;15.60;99.90
11922;DHT22;6021;51.182;3.160;2022-10-31T19:23:53;15.80;99.90
11922;DHT22;6021;51.182;3.160;2022-10-31T19:26:23;15.80;99.90
11922;DHT22;6021;51.182;3.160;2022-10-31T19:28:51;15.80;99.90
11922;DHT22;6021;51.182;3.160;2022-10-31T19:31:20;15.80;99.90
11922;DHT22;6021;51.182;3.160;2022-10-31T19:33:48;15.80;99.90
11922;DHT22;6021;51.182;3.160;2022-10-31T19:36:18;15.80;99.90
11922;DHT22;6021;51.182;3.160;2022-10-31T19:38:50;16.00;99.90
11922;DHT22;6021;51.182;3.160;2022-10-31T19:41:26;15.90;99.90
11922;DHT22;6021;51.182;3.160;2022-10-31T19:43:50;16.00;99.90
11922;DHT22;6021;51.182;3.160;2022-10-31T19:46:21;15.90;99.90
11922;DHT22;6021;51.182;3.160;2022-10-31T19:48:49;15.90;99.90
11922;DHT22;6021;51.182;3.160;2022-10-31T19:51:20;15.80;99.90
11922;DHT22;6021;51.182;3.160;2022-10-31T19:53:48;15.80;99.90
11922;DHT22;6021;51.182;3.160;2022-10-31T19:56:18;15.90;99.90
11922;DHT22;6021;51.182;3.160;2022-10-31T19:58:50;16.00;99.90
11922;DHT22;6021;51.182;3.160;2022-10-31T20:01:21;16.20;99.90